Terminal Aerodrome Forecast
Issued by NWS

Home | Current Version | Previous Version | Text Only | Print | Product List | Glossary On
Versions: 1 2 3 4 5 6 7 8 9 10 11 12 13 14 15 16 17 18
000
FTUS41 KPBZ 181411 AAA
TAFLBE
TAF AMD
KLBE 181411Z 1814/1912 23006KT P6SM VCSH BKN015
      TEMPO 1814/1815 2SM -SHRA BR BKN009
     FM181500 21005KT P6SM VCSH SCT015 BKN025
      TEMPO 1815/1818 BKN015
     FM181800 24008KT P6SM SCT025
     FM182000 25010G19KT P6SM SCT040
     FM190300 25004KT 5SM BR SCT020=

USA.gov is the U.S. government's official web portal to all federal, state and local government web resources and services.